Time;durP1;ratioP1;P1;durP2;ratioP2;P2;SDS_P1;SDS_P2;PMS_P1;PMS_P2;Temp;Humidity;BMP_temperature;BMP_pressure;BME280_temperature;BME280_humidity;BME280_pressure;Samples;Min_cycle;Max_cycle;Signal;HPM_P1;HPM_P2
2024/03/10 00:00:44;;;;;;;7.23;6.53;;;;;;;11.84;48.70;98272.81;10429321;28;20048;-62
2024/03/10 00:05:38;;;;;;;9.98;6.80;;;;;;;11.84;48.53;98286.16;10398999;28;20049;-63
2024/03/10 00:10:41;;;;;;;8.02;6.93;;;;;;;11.83;48.82;98282.69;10428268;28;20718;-62
2024/03/10 00:15:44;;;;;;;8.20;6.68;;;;;;;11.81;49.17;98282.03;10400655;28;20064;-62
2024/03/10 00:20:46;;;;;;;6.60;5.90;;;;;;;11.74;49.31;98302.41;10428464;28;20056;-62
2024/03/10 00:25:48;;;;;;;7.22;6.53;;;;;;;11.74;49.42;98304.22;10419089;28;20049;-62
2024/03/10 00:30:50;;;;;;;6.55;5.88;;;;;;;11.75;49.72;98304.06;10423069;28;20694;-63
2024/03/10 00:35:52;;;;;;;6.65;5.88;;;;;;;11.77;49.66;98306.53;10425855;28;20056;-62
2024/03/10 00:40:55;;;;;;;8.20;6.40;;;;;;;11.75;49.80;98305.91;10425122;28;20041;-60
2024/03/10 00:45:57;;;;;;;7.55;5.85;;;;;;;11.71;49.78;98301.91;10430053;28;20063;-62
2024/03/10 00:51:00;;;;;;;8.32;7.00;;;;;;;11.70;50.00;98300.28;10390171;28;20732;-61
2024/03/10 00:56:02;;;;;;;8.25;7.43;;;;;;;11.61;50.06;98287.00;10420644;28;20170;-62
2024/03/10 01:01:04;;;;;;;8.50;7.65;;;;;;;11.49;50.43;98289.25;10388411;28;20056;-63
2024/03/10 01:06:06;;;;;;;9.40;8.40;;;;;;;11.43;50.67;98295.28;10416341;28;20128;-63
2024/03/10 01:11:08;;;;;;;9.07;8.18;;;;;;;11.43;50.95;98297.13;10426795;28;20130;-61
2024/03/10 01:16:10;;;;;;;9.80;8.80;;;;;;;11.40;50.90;98292.16;10433286;28;20049;-61
2024/03/10 01:21:14;;;;;;;9.40;8.40;;;;;;;11.36;50.99;98297.00;10429706;28;20064;-61
2024/03/10 01:26:17;;;;;;;9.43;7.93;;;;;;;11.30;51.08;98301.22;10406746;28;20057;-60
2024/03/10 01:31:20;;;;;;;8.23;7.30;;;;;;;11.26;51.25;98297.25;10392329;28;20871;-62
2024/03/10 01:36:21;;;;;;;9.00;7.53;;;;;;;11.25;51.71;98284.09;10412166;28;20073;-62
2024/03/10 01:41:25;;;;;;;7.80;6.90;;;;;;;11.25;51.71;98276.94;10433848;28;20060;-63
2024/03/10 01:46:28;;;;;;;9.32;7.63;;;;;;;11.24;51.97;98280.59;10411689;28;20048;-62
2024/03/10 01:51:31;;;;;;;8.23;7.38;;;;;;;11.23;51.69;98267.44;10428466;28;20102;-62
2024/03/10 01:56:35;;;;;;;8.23;6.65;;;;;;;11.11;52.26;98251.06;10408201;28;20041;-63
2024/03/10 02:01:36;;;;;;;7.32;6.63;;;;;;;11.17;52.54;98257.50;10429356;28;20059;-62
2024/03/10 02:06:38;;;;;;;8.45;7.57;;;;;;;11.14;52.25;98269.38;10416412;28;20173;-65
2024/03/10 02:11:40;;;;;;;8.60;7.75;;;;;;;11.14;52.67;98269.38;10430777;28;20550;-64
2024/03/10 02:16:43;;;;;;;8.63;7.72;;;;;;;11.12;52.74;98260.69;10429263;28;20060;-62
2024/03/10 02:21:44;;;;;;;8.85;7.50;;;;;;;11.01;52.59;98237.16;10427781;28;20083;-61
2024/03/10 02:26:47;;;;;;;8.93;8.02;;;;;;;11.08;53.09;98249.59;10428656;28;20051;-62
2024/03/10 02:47:50;;;;;;;8.95;8.05;;;;;;;10.93;52.76;98222.06;10427143;28;20071;-61
2024/03/10 02:52:51;;;;;;;8.27;7.32;;;;;;;10.88;52.87;98227.88;10431396;28;20137;-63
2024/03/10 02:57:53;;;;;;;9.30;8.30;;;;;;;10.76;53.15;98213.31;10437074;28;20056;-63
2024/03/10 03:02:55;;;;;;;9.57;8.57;;;;;;;10.70;53.25;98198.06;10433810;28;20046;-61
2024/03/10 03:07:59;;;;;;;8.80;7.60;;;;;;;10.76;53.42;98202.69;10437379;28;20080;-62
2024/03/10 03:13:01;;;;;;;8.25;7.45;;;;;;;10.70;53.63;98192.72;10442302;28;20064;-63
2024/03/10 03:18:03;;;;;;;10.07;7.85;;;;;;;10.72;53.69;98190.72;10436247;28;20052;-62
2024/03/10 03:23:05;;;;;;;8.75;7.85;;;;;;;10.62;53.81;98182.97;10417453;28;20053;-61
2024/03/10 03:28:07;;;;;;;9.10;8.13;;;;;;;10.60;53.88;98188.47;10437551;28;20594;-61
2024/03/10 03:33:09;;;;;;;8.68;7.75;;;;;;;10.65;53.80;98173.81;10442753;28;20056;-63
2024/03/10 03:38:11;;;;;;;8.00;7.30;;;;;;;10.64;54.28;98153.53;10397666;28;20052;-62
2024/03/10 03:43:12;;;;;;;9.80;8.90;;;;;;;10.66;54.20;98149.69;10438045;28;20617;-63
2024/03/10 03:48:14;;;;;;;9.43;8.30;;;;;;;10.49;54.20;98132.97;10401828;28;20076;-62
2024/03/10 03:53:19;;;;;;;8.77;7.88;;;;;;;10.52;54.24;98143.25;10404096;28;20710;-62
2024/03/10 03:58:21;;;;;;;8.75;7.80;;;;;;;10.53;54.79;98139.63;10372158;28;20093;-63
2024/03/10 04:03:23;;;;;;;9.30;8.43;;;;;;;10.55;54.44;98139.44;10403483;28;20234;-62
2024/03/10 04:08:24;;;;;;;31.63;23.50;;;;;;;10.52;54.29;98124.66;10436912;28;20070;-62
2024/03/10 04:13:25;;;;;;;11.18;9.57;;;;;;;10.48;54.62;98119.84;10438725;28;20048;-60
2024/03/10 04:18:27;;;;;;;8.27;7.45;;;;;;;10.46;55.13;98109.38;10424631;28;20057;-61
2024/03/10 04:23:28;;;;;;;9.27;8.27;;;;;;;10.49;54.34;98111.69;10413213;28;20064;-62
2024/03/10 04:28:30;;;;;;;9.15;8.18;;;;;;;10.48;54.71;98115.38;10420601;28;20768;-63
2024/03/10 04:33:33;;;;;;;7.97;7.15;;;;;;;10.46;54.95;98112.06;10417561;28;20507;-61
2024/03/10 04:38:34;;;;;;;9.07;8.13;;;;;;;10.36;55.13;98095.50;10433252;28;20052;-62
2024/03/10 04:43:38;;;;;;;9.70;8.70;;;;;;;10.39;55.03;98105.81;10409847;28;20143;-62
2024/03/10 04:48:40;;;;;;;9.32;8.43;;;;;;;10.32;55.23;98088.84;10394927;28;20049;-62
2024/03/10 04:53:42;;;;;;;9.20;8.00;;;;;;;10.30;55.23;98077.53;10399401;28;20103;-62
2024/03/10 04:58:44;;;;;;;10.95;8.77;;;;;;;10.22;55.59;98059.81;10428245;28;20447;-63
2024/03/10 05:03:46;;;;;;;8.95;8.07;;;;;;;10.15;55.37;98046.41;10424403;28;20051;-61
2024/03/10 05:08:48;;;;;;;9.60;8.70;;;;;;;10.23;55.89;98037.53;10393817;28;20430;-61
2024/03/10 05:13:50;;;;;;;9.00;8.10;;;;;;;10.11;55.93;98030.97;10412872;28;20134;-60
2024/03/10 05:18:54;;;;;;;9.48;8.43;;;;;;;10.10;56.27;98046.06;10406364;28;20041;-61
2024/03/10 05:23:57;;;;;;;10.52;9.40;;;;;;;10.06;56.26;98045.59;10418354;28;20139;-62
2024/03/10 05:28:59;;;;;;;10.35;9.35;;;;;;;10.08;56.51;98040.13;10415301;28;20178;-63
2024/03/10 05:34:03;;;;;;;9.63;8.63;;;;;;;10.08;56.40;98056.88;10407287;28;20055;-62
2024/03/10 05:39:08;;;;;;;10.18;9.15;;;;;;;10.03;56.73;98067.22;10395092;28;20041;-61
2024/03/10 05:44:14;;;;;;;10.07;9.00;;;;;;;9.95;56.71;98064.59;10425634;28;20231;-62
2024/03/10 05:49:16;;;;;;;10.52;9.52;;;;;;;9.99;56.91;98107.59;10413399;28;20795;-62
2024/03/10 05:54:17;;;;;;;9.93;8.95;;;;;;;10.00;57.20;98111.94;10410176;28;20051;-62
2024/03/10 05:59:19;;;;;;;11.00;9.88;;;;;;;9.98;57.27;98108.59;10390215;28;20229;-63
2024/03/10 06:04:21;;;;;;;10.10;8.50;;;;;;;9.98;57.32;98111.25;10432485;28;21147;-62
2024/03/10 06:09:23;;;;;;;9.85;8.88;;;;;;;9.93;57.18;98089.69;10428016;28;20958;-63
2024/03/10 06:14:25;;;;;;;17.42;10.90;;;;;;;9.89;57.27;98083.88;10404947;28;20064;-61
2024/03/10 06:30:10;;;;;;;11.35;10.25;;;;;;;9.67;57.62;98073.00;10435974;28;20510;-64
2024/03/10 06:35:14;;;;;;;10.30;9.10;;;;;;;9.71;57.54;98098.25;10405259;28;20140;-62
2024/03/10 06:40:16;;;;;;;10.60;9.50;;;;;;;9.67;57.54;98101.41;10424114;28;20139;-62
2024/03/10 06:45:17;;;;;;;10.45;9.40;;;;;;;9.68;57.88;98113.69;10403161;28;20055;-64
2024/03/10 06:50:20;;;;;;;11.98;10.00;;;;;;;9.50;57.78;98095.28;10421930;28;20819;-63
2024/03/10 06:55:22;;;;;;;11.63;10.30;;;;;;;9.67;57.77;98126.13;10423712;28;20084;-61
2024/03/10 07:00:24;;;;;;;11.48;9.93;;;;;;;9.68;57.79;98130.47;10414087;28;20057;-63
2024/03/10 07:05:26;;;;;;;12.05;10.35;;;;;;;9.77;57.82;98120.63;10430114;28;20096;-61
2024/03/10 07:10:27;;;;;;;11.65;10.38;;;;;;;9.79;57.54;98141.72;10423721;28;20595;-62
2024/03/10 07:15:32;;;;;;;10.32;9.30;;;;;;;9.84;57.59;98132.22;10436243;28;20052;-62
2024/03/10 07:20:34;;;;;;;11.25;10.05;;;;;;;9.86;57.32;98129.41;10435545;28;20187;-62
2024/03/10 07:25:36;;;;;;;9.93;8.90;;;;;;;9.93;57.15;98143.66;10417009;28;20045;-61
2024/03/10 07:30:40;;;;;;;10.67;9.57;;;;;;;9.97;57.60;98144.16;10424863;28;20041;-61
2024/03/10 07:35:41;;;;;;;11.05;9.70;;;;;;;9.91;57.37;98133.22;10390919;28;20105;-62
2024/03/10 07:40:43;;;;;;;10.88;9.68;;;;;;;10.08;57.85;98152.56;10438455;28;20052;-60
2024/03/10 07:45:45;;;;;;;12.68;11.20;;;;;;;10.10;57.12;98147.09;10441588;28;20220;-63
2024/03/10 07:50:47;;;;;;;11.65;10.32;;;;;;;10.01;57.28;98129.53;10440141;28;20057;-60
2024/03/10 07:55:49;;;;;;;10.82;9.45;;;;;;;10.15;57.07;98110.19;10429425;28;20048;-64
2024/03/10 08:00:51;;;;;;;11.30;10.10;;;;;;;10.16;56.94;98106.53;10434726;28;20055;-61
2024/03/10 08:05:52;;;;;;;37.92;30.10;;;;;;;10.33;56.97;98117.06;10408308;28;20052;-63
2024/03/10 08:10:55;;;;;;;13.05;11.70;;;;;;;10.29;56.88;98094.53;10424754;28;20052;-62
2024/03/10 08:15:59;;;;;;;13.77;10.57;;;;;;;10.25;56.77;98054.97;10407726;28;20041;-61
2024/03/10 08:21:01;;;;;;;11.15;10.02;;;;;;;10.29;56.84;98051.97;10416633;28;20057;-64
2024/03/10 08:26:03;;;;;;;12.25;10.98;;;;;;;10.04;57.27;98050.28;10398421;28;20126;-62
2024/03/10 08:31:05;;;;;;;12.63;10.90;;;;;;;10.09;56.84;98044.44;10436317;28;20077;-62
2024/03/10 08:36:08;;;;;;;12.27;11.07;;;;;;;10.09;57.36;98036.47;10418747;28;20040;-63
2024/03/10 08:41:10;;;;;;;12.15;10.32;;;;;;;10.17;57.26;98043.56;10401631;28;20045;-64
2024/03/10 08:46:12;;;;;;;13.00;11.63;;;;;;;10.26;57.08;98040.66;10417408;28;20367;-65
2024/03/10 08:51:13;;;;;;;12.40;11.10;;;;;;;10.44;56.78;98031.63;10427319;28;20053;-62
2024/03/10 08:56:15;;;;;;;12.55;11.23;;;;;;;10.55;56.33;98039.19;10421402;28;20044;-64
2024/03/10 09:01:16;;;;;;;14.55;11.82;;;;;;;10.79;56.20;98048.81;10419903;28;20736;-59
2024/03/10 09:06:18;;;;;;;12.93;11.63;;;;;;;10.97;55.46;98052.97;10435770;28;20048;-63
2024/03/10 09:11:20;;;;;;;12.85;11.45;;;;;;;11.28;55.24;98063.50;10433397;28;20397;-63
2024/03/10 09:16:22;;;;;;;13.02;11.10;;;;;;;11.62;54.40;98053.31;10390004;28;20053;-61
2024/03/10 09:21:24;;;;;;;13.40;11.18;;;;;;;11.96;53.79;98065.28;10431165;28;20061;-60
2024/03/10 09:26:28;;;;;;;13.05;11.70;;;;;;;12.00;53.30;98070.06;10430462;28;20141;-63
2024/03/10 09:31:30;;;;;;;13.30;11.02;;;;;;;12.12;53.19;98056.28;10401412;28;20246;-63
2024/03/10 09:36:34;;;;;;;12.70;11.30;;;;;;;12.32;52.85;98054.63;10432557;28;20060;-63
2024/03/10 09:41:41;;;;;;;11.15;10.15;;;;;;;12.38;52.67;98042.38;10433671;28;20072;-62
2024/03/10 09:46:43;;;;;;;13.57;11.45;;;;;;;12.24;52.81;98036.09;10432199;28;20048;-64
2024/03/10 09:51:49;;;;;;;16.73;11.60;;;;;;;12.26;52.93;98038.56;10391497;28;20048;-63
2024/03/10 09:56:52;;;;;;;13.30;12.00;;;;;;;12.26;53.10;98031.38;10430288;28;20131;-63
2024/03/10 10:01:54;;;;;;;12.32;10.90;;;;;;;12.35;53.19;98022.25;10416317;28;20134;-64
2024/03/10 10:06:57;;;;;;;13.18;11.40;;;;;;;12.30;52.90;97997.19;10426810;28;20044;-63
2024/03/10 10:12:01;;;;;;;12.55;11.27;;;;;;;12.50;52.88;98013.38;10411136;28;20064;-64
2024/03/10 10:17:03;;;;;;;14.05;11.60;;;;;;;12.58;52.80;97999.06;10426421;28;20052;-63
2024/03/10 10:22:07;;;;;;;12.82;11.48;;;;;;;12.75;52.47;98016.47;10412429;28;20248;-63
2024/03/10 10:27:09;;;;;;;13.27;11.88;;;;;;;12.96;51.97;98009.47;10425597;28;20059;-62
2024/03/10 10:32:11;;;;;;;13.38;11.98;;;;;;;13.35;51.27;98000.91;10409994;28;20103;-63
2024/03/10 10:37:13;;;;;;;13.63;11.93;;;;;;;13.63;50.79;98015.25;10412264;28;20892;-62
2024/03/10 10:42:14;;;;;;;12.80;11.48;;;;;;;13.69;50.02;98015.31;10429425;28;20200;-63
2024/03/10 10:47:36;;;;;;;11.98;10.88;;;;;;;14.06;49.75;98039.91;10429841;28;20053;-61
2024/03/10 10:52:41;;;;;;;12.23;11.05;;;;;;;14.06;49.69;98028.41;10414260;28;20048;-61
2024/03/10 10:57:47;;;;;;;12.43;11.18;;;;;;;14.02;49.65;98036.00;10434308;28;20194;-63
2024/03/10 11:03:04;;;;;;;13.52;12.23;;;;;;;14.44;49.06;98038.59;10401803;28;20049;-62
2024/03/10 11:08:06;;;;;;;13.00;11.73;;;;;;;14.92;49.29;98022.44;10422387;28;20479;-64
2024/03/10 11:13:08;;;;;;;12.60;11.27;;;;;;;14.88;47.80;98014.97;10425192;28;20229;-64
2024/03/10 11:18:20;;;;;;;11.97;10.87;;;;;;;14.58;48.13;98004.66;10414916;28;21612;-63
2024/03/10 11:23:34;;;;;;;11.90;10.60;;;;;;;14.55;48.67;97997.03;10440685;28;20094;-62
2024/03/10 11:28:50;;;;;;;10.80;9.70;;;;;;;14.70;47.24;97989.66;10430888;28;20056;-63
2024/03/10 11:33:55;;;;;;;9.73;8.73;;;;;;;14.91;46.09;97982.47;10438442;28;20051;-62
2024/03/10 11:39:01;;;;;;;10.23;9.23;;;;;;;14.95;45.77;97997.91;10432212;28;20056;-63
2024/03/10 11:44:03;;;;;;;9.88;8.80;;;;;;;14.62;45.98;97958.56;10439568;28;20062;-62
2024/03/10 11:49:06;;;;;;;9.75;8.50;;;;;;;14.63;46.20;97986.16;10391104;28;20569;-63
2024/03/10 11:54:11;;;;;;;9.18;8.27;;;;;;;14.62;45.36;97973.78;10406709;28;20044;-63
2024/03/10 11:59:13;;;;;;;10.02;8.73;;;;;;;14.62;45.31;97957.72;10427165;28;20571;-62
2024/03/10 12:04:15;;;;;;;8.80;8.00;;;;;;;14.68;45.76;97951.53;10431611;28;20059;-61
2024/03/10 12:09:21;;;;;;;9.45;7.88;;;;;;;14.69;45.44;97952.38;10423690;28;20044;-60
2024/03/10 12:14:22;;;;;;;8.43;7.63;;;;;;;14.69;45.52;97966.59;10413258;28;20082;-64
2024/03/10 12:19:24;;;;;;;8.32;7.55;;;;;;;14.75;45.04;97962.25;10427761;28;20171;-60
2024/03/10 12:24:30;;;;;;;8.70;7.90;;;;;;;14.80;44.08;97944.56;10434644;28;20108;-64
2024/03/10 12:29:32;;;;;;;8.30;7.50;;;;;;;14.96;44.59;97939.78;10424348;28;20053;-64
2024/03/10 12:34:33;;;;;;;8.55;7.72;;;;;;;15.41;43.88;97931.84;10438655;28;22540;-63
2024/03/10 12:39:35;;;;;;;8.77;7.88;;;;;;;15.97;42.63;97942.97;10436240;28;20048;-63
2024/03/10 12:44:36;;;;;;;8.07;7.30;;;;;;;16.27;41.29;97932.47;10424155;28;20145;-62
2024/03/10 12:49:38;;;;;;;7.70;7.00;;;;;;;16.52;40.89;97921.75;10422055;28;20705;-65
2024/03/10 12:54:40;;;;;;;8.70;7.85;;;;;;;16.33;41.96;97939.66;10431650;28;20053;-60
2024/03/10 12:59:41;;;;;;;8.27;7.47;;;;;;;17.95;39.29;97943.25;10435749;28;20048;-64
2024/03/10 13:04:48;;;;;;;8.77;7.88;;;;;;;20.22;35.44;97940.28;10435059;28;20057;-61
2024/03/10 13:09:49;;;;;;;7.95;7.13;;;;;;;19.06;36.67;97917.72;10435278;28;20045;-63
2024/03/10 13:14:51;;;;;;;10.82;9.07;;;;;;;18.31;37.55;97925.34;10430332;28;20329;-63
2024/03/10 13:19:52;;;;;;;6.90;6.20;;;;;;;17.27;38.51;97937.00;10435196;28;20100;-62
2024/03/10 13:24:54;;;;;;;7.07;6.40;;;;;;;16.77;39.72;97947.81;10436107;28;20059;-61
2024/03/10 13:29:55;;;;;;;7.30;6.60;;;;;;;16.93;39.48;97939.22;10433062;28;20724;-63
2024/03/10 13:35:00;;;;;;;7.47;6.77;;;;;;;19.95;34.89;97940.88;10434391;28;20473;-64
2024/03/10 13:40:13;;;;;;;7.30;6.60;;;;;;;18.40;35.31;97933.91;10432012;28;20526;-63
2024/03/10 13:45:15;;;;;;;7.13;6.43;;;;;;;17.13;38.55;97927.44;10408533;28;20045;-63
2024/03/10 13:50:32;;;;;;;7.22;6.63;;;;;;;16.38;39.87;97939.03;10425705;28;20123;-62
2024/03/10 13:55:34;;;;;;;7.20;6.47;;;;;;;15.99;41.08;97922.94;10394668;28;20071;-60
2024/03/10 14:00:37;;;;;;;7.72;6.93;;;;;;;15.87;41.83;97903.22;10428528;28;20527;-63
2024/03/10 14:05:39;;;;;;;7.55;6.78;;;;;;;15.70;42.02;97895.63;10430138;28;20076;-62
2024/03/10 14:10:42;;;;;;;7.25;6.55;;;;;;;15.54;42.02;97882.72;10423126;28;20969;-63
2024/03/10 14:15:44;;;;;;;7.07;6.43;;;;;;;15.25;42.55;97919.72;10402615;28;20135;-62
2024/03/10 14:20:46;;;;;;;7.53;6.82;;;;;;;15.11;42.89;97929.66;10408820;28;20502;-63
2024/03/10 14:25:47;;;;;;;7.57;6.85;;;;;;;15.13;43.43;97948.19;10413773;28;20044;-63
2024/03/10 14:30:49;;;;;;;7.53;6.82;;;;;;;15.05;43.43;97943.88;10408351;28;20182;-64
2024/03/10 14:35:51;;;;;;;7.63;6.93;;;;;;;15.01;44.04;97937.28;10420612;28;20049;-63
2024/03/10 14:40:58;;;;;;;8.23;7.43;;;;;;;15.00;44.10;97936.47;10390856;28;20052;-62
2024/03/10 14:45:59;;;;;;;8.07;7.38;;;;;;;14.83;44.15;97912.00;10409488;28;20056;-62
2024/03/10 14:51:01;;;;;;;7.30;6.60;;;;;;;14.93;44.33;97942.88;10378577;28;20726;-64
2024/03/10 14:56:03;;;;;;;7.53;6.82;;;;;;;14.85;43.68;97943.94;10430479;28;21401;-62
2024/03/10 15:01:05;;;;;;;7.78;6.97;;;;;;;14.90;43.81;97956.69;10427873;28;20059;-61
2024/03/10 15:06:25;;;;;;;8.05;6.75;;;;;;;14.81;43.47;97940.81;10394484;28;20091;-63
2024/03/10 15:11:30;;;;;;;7.53;6.82;;;;;;;14.80;43.38;97949.91;10374502;28;20064;-64
2024/03/10 15:16:35;;;;;;;6.97;6.38;;;;;;;14.78;43.53;97967.19;10416018;28;20052;-64
2024/03/10 15:21:38;;;;;;;7.63;6.85;;;;;;;14.67;43.25;97969.47;10412039;28;20181;-63
2024/03/10 15:26:40;;;;;;;6.83;6.23;;;;;;;14.60;43.73;97971.28;10392054;28;20053;-60
2024/03/10 15:31:42;;;;;;;7.97;6.68;;;;;;;14.60;44.00;97981.19;10386030;28;20565;-63
2024/03/10 15:36:43;;;;;;;6.72;6.13;;;;;;;14.54;44.19;97982.81;10414425;28;20138;-62
2024/03/10 15:41:47;;;;;;;7.07;6.38;;;;;;;14.48;44.20;97979.09;10432455;28;20127;-64
2024/03/10 15:46:55;;;;;;;9.05;8.20;;;;;;;14.37;44.41;97977.03;10420542;28;20052;-64
2024/03/10 15:51:56;;;;;;;6.67;6.07;;;;;;;14.47;44.76;97988.16;10404167;28;20053;-62
2024/03/10 15:56:59;;;;;;;7.88;7.18;;;;;;;14.48;44.83;97987.13;10415198;28;20696;-61
2024/03/10 16:02:02;;;;;;;8.32;7.53;;;;;;;14.44;44.91;97991.25;10418948;28;20041;-63
2024/03/10 16:07:05;;;;;;;9.65;8.77;;;;;;;14.36;45.38;97996.78;10415943;28;20057;-64
2024/03/10 16:12:08;;;;;;;8.05;7.25;;;;;;;14.22;45.13;97992.44;10436084;28;20206;-62
2024/03/10 16:17:14;;;;;;;8.00;7.20;;;;;;;14.13;45.24;98008.66;10441537;28;20150;-63
2024/03/10 16:22:16;;;;;;;8.23;7.43;;;;;;;14.22;45.47;98027.22;10441023;28;20055;-64
2024/03/10 16:27:18;;;;;;;8.88;8.07;;;;;;;14.13;45.47;98021.22;10424126;28;20091;-59
2024/03/10 16:32:21;;;;;;;8.73;7.93;;;;;;;14.07;45.96;98030.88;10450922;28;20056;-63
2024/03/10 16:37:29;;;;;;;9.30;8.40;;;;;;;14.11;45.96;98025.94;10426456;28;20649;-61
2024/03/10 16:42:31;;;;;;;9.73;8.77;;;;;;;14.15;46.42;98022.66;10398787;28;20055;-62
2024/03/10 16:47:33;;;;;;;8.02;7.22;;;;;;;14.15;47.09;98028.00;10420847;28;20075;-62
2024/03/10 16:52:35;;;;;;;8.77;7.97;;;;;;;14.13;46.65;98019.38;10387036;28;20064;-63
2024/03/10 16:57:38;;;;;;;9.60;8.63;;;;;;;14.11;46.84;98010.72;10436264;28;20442;-60
2024/03/10 17:02:43;;;;;;;9.88;8.10;;;;;;;14.18;46.89;98009.94;10430543;28;20799;-62
2024/03/10 17:07:46;;;;;;;12.52;9.50;;;;;;;14.18;47.02;98010.75;10372054;28;20487;-61
2024/03/10 17:12:48;;;;;;;9.02;8.13;;;;;;;14.14;47.26;98010.31;10411900;28;20101;-64
2024/03/10 17:17:49;;;;;;;10.00;8.98;;;;;;;14.18;47.79;98015.28;10404016;28;20649;-63
2024/03/10 17:22:51;;;;;;;10.35;8.93;;;;;;;14.08;47.57;98008.47;10420087;28;20149;-63
2024/03/10 17:27:54;;;;;;;8.57;7.68;;;;;;;14.14;47.59;98026.38;10423711;28;20622;-62
2024/03/10 17:32:57;;;;;;;11.32;9.43;;;;;;;13.94;47.64;97988.03;10432773;28;20053;-62
2024/03/10 17:37:58;;;;;;;10.52;9.43;;;;;;;14.00;47.71;98005.94;10430999;28;20793;-64
2024/03/10 17:43:00;;;;;;;9.90;9.00;;;;;;;14.07;48.63;98020.19;10422589;28;20817;-66
2024/03/10 17:48:03;;;;;;;11.63;10.40;;;;;;;14.05;47.99;98016.88;10428652;28;20847;-64
2024/03/10 17:53:04;;;;;;;16.17;14.48;;;;;;;13.84;49.77;98003.63;10395566;28;20067;-61
2024/03/10 17:58:07;;;;;;;19.25;17.40;;;;;;;13.73;51.31;98023.75;10393141;28;20052;-63
2024/03/10 18:03:11;;;;;;;20.67;18.60;;;;;;;13.56;52.48;98040.09;10421462;28;20125;-63
2024/03/10 18:08:12;;;;;;;21.70;19.53;;;;;;;13.46;53.19;98044.16;10421397;28;20119;-63
2024/03/10 18:13:17;;;;;;;22.85;20.63;;;;;;;13.41;53.75;98050.09;10429173;28;20563;-62
2024/03/10 18:18:18;;;;;;;23.00;20.70;;;;;;;13.26;54.10;98040.28;10424122;28;20045;-62
2024/03/10 18:23:23;;;;;;;24.55;21.80;;;;;;;13.31;53.88;98061.06;10388470;28;20060;-64
2024/03/10 18:28:24;;;;;;;24.23;21.80;;;;;;;13.29;54.24;98056.97;10417522;28;20830;-63
2024/03/10 18:33:26;;;;;;;25.83;23.08;;;;;;;13.15;54.93;98061.34;10428104;28;20533;-62
2024/03/10 18:38:28;;;;;;;24.42;22.13;;;;;;;13.13;54.99;98066.09;10413668;28;20434;-66
2024/03/10 18:43:30;;;;;;;23.15;20.80;;;;;;;13.08;55.45;98064.00;10414488;28;20457;-65
2024/03/10 18:48:33;;;;;;;22.10;20.00;;;;;;;13.02;55.67;98070.09;10419634;28;20072;-63
2024/03/10 18:53:37;;;;;;;25.30;22.73;;;;;;;12.93;55.94;98060.59;10417979;28;20072;-63
2024/03/10 18:58:39;;;;;;;25.08;22.48;;;;;;;12.93;56.25;98069.41;10429511;28;20049;-63
2024/03/10 19:03:42;;;;;;;26.23;23.33;;;;;;;12.94;56.42;98091.59;10429980;28;20121;-62
2024/03/10 19:08:48;;;;;;;25.30;22.80;;;;;;;12.91;56.71;98092.81;10412908;28;20060;-65
2024/03/10 19:13:53;;;;;;;24.92;22.42;;;;;;;12.85;56.99;98110.44;10438550;28;20075;-62
2024/03/10 19:18:55;;;;;;;24.65;22.35;;;;;;;12.81;57.08;98109.16;10434563;28;20048;-63
2024/03/10 19:23:57;;;;;;;24.20;21.80;;;;;;;12.75;57.15;98101.91;10404616;28;20134;-63
2024/03/10 19:28:59;;;;;;;24.52;22.13;;;;;;;12.78;57.40;98111.38;10378722;28;20255;-64
2024/03/10 19:34:02;;;;;;;23.07;20.77;;;;;;;12.75;57.68;98111.75;10406579;28;20052;-64
2024/03/10 19:39:03;;;;;;;24.10;21.65;;;;;;;12.47;57.99;98088.47;10433416;28;20049;-64
2024/03/10 19:44:05;;;;;;;24.55;22.10;;;;;;;12.64;57.89;98132.59;10427873;28;20128;-63
2024/03/10 19:49:08;;;;;;;22.83;20.52;;;;;;;12.59;58.19;98124.31;10385879;28;21292;-63
2024/03/10 19:54:09;;;;;;;24.05;21.65;;;;;;;12.60;58.17;98131.31;10442157;28;20045;-65
2024/03/10 19:59:11;;;;;;;23.15;20.92;;;;;;;12.57;58.90;98146.88;10417591;28;20629;-61
2024/03/10 20:04:14;;;;;;;24.58;22.08;;;;;;;12.58;58.58;98146.69;10433084;28;20672;-64
2024/03/10 20:09:16;;;;;;;24.02;21.63;;;;;;;12.54;58.73;98153.41;10392824;28;20538;-63
2024/03/10 20:14:19;;;;;;;24.60;22.02;;;;;;;12.53;58.96;98162.44;10421376;28;20424;-64
2024/03/10 20:19:24;;;;;;;23.67;21.30;;;;;;;12.56;59.09;98159.38;10422384;28;20190;-66
2024/03/10 20:24:26;;;;;;;23.50;21.08;;;;;;;12.54;59.24;98170.25;10402424;28;20749;-63
2024/03/10 20:29:28;;;;;;;26.30;23.63;;;;;;;12.45;59.17;98162.53;10425868;28;20726;-64
2024/03/10 20:34:29;;;;;;;23.73;21.42;;;;;;;12.33;59.23;98141.66;10412024;28;20056;-66
2024/03/10 20:39:35;;;;;;;24.70;22.17;;;;;;;12.49;59.41;98169.13;10366126;28;20057;-62
2024/03/10 20:44:36;;;;;;;23.20;20.90;;;;;;;12.47;59.92;98163.19;10415418;28;20053;-63
2024/03/10 20:49:40;;;;;;;24.77;22.27;;;;;;;12.46;60.43;98167.69;10401324;28;20057;-63
2024/03/10 20:54:43;;;;;;;24.40;22.00;;;;;;;12.49;61.51;98175.31;10413138;28;20088;-63
2024/03/10 20:59:46;;;;;;;26.52;23.92;;;;;;;12.42;63.19;98168.25;10420795;28;20057;-64
2024/03/10 21:04:49;;;;;;;26.00;23.30;;;;;;;12.37;63.60;98180.31;10394439;28;20049;-63
2024/03/10 21:09:59;;;;;;;24.70;22.40;;;;;;;12.37;64.15;98187.50;10390172;28;20067;-65
2024/03/10 21:15:01;;;;;;;24.50;22.08;;;;;;;12.38;64.46;98192.63;10439716;28;20056;-67
2024/03/10 21:20:10;;;;;;;24.13;21.75;;;;;;;12.27;64.88;98179.75;10411616;28;20064;-65
2024/03/10 21:25:14;;;;;;;26.80;24.10;;;;;;;12.34;65.94;98196.69;10426437;28;20509;-64
2024/03/10 21:30:18;;;;;;;25.42;22.95;;;;;;;12.31;66.48;98197.06;10408854;28;20060;-65
2024/03/10 21:35:24;;;;;;;27.40;24.73;;;;;;;12.20;67.25;98205.50;10393669;28;20100;-63
2024/03/10 21:40:29;;;;;;;27.05;24.33;;;;;;;12.11;68.49;98212.75;10423594;28;20048;-65
2024/03/10 21:45:31;;;;;;;28.70;25.75;;;;;;;12.08;69.28;98222.97;10386294;28;20538;-64
2024/03/10 21:50:34;;;;;;;31.33;28.02;;;;;;;11.98;70.81;98224.09;10415018;28;20041;-62
2024/03/10 21:55:35;;;;;;;27.02;24.30;;;;;;;11.93;69.88;98231.78;10403001;28;20064;-65
2024/03/10 22:00:38;;;;;;;23.92;21.42;;;;;;;11.82;70.43;98216.22;10398360;28;20190;-65
2024/03/10 22:05:39;;;;;;;21.15;18.95;;;;;;;11.81;69.36;98244.72;10416987;28;20411;-63
2024/03/10 22:10:41;;;;;;;20.45;18.35;;;;;;;11.59;71.57;98235.75;10421622;28;20049;-63
2024/03/10 22:15:42;;;;;;;20.15;18.02;;;;;;;11.33;75.46;98233.44;10423824;28;20068;-63
2024/03/10 22:20:44;;;;;;;20.27;18.30;;;;;;;11.00;78.41;98230.16;10425566;28;20109;-64
2024/03/10 22:25:46;;;;;;;16.55;14.95;;;;;;;11.06;80.15;98264.88;10401151;28;20458;-66
2024/03/10 22:30:47;;;;;;;16.45;14.77;;;;;;;11.02;80.44;98260.09;10432220;28;20139;-65
2024/03/10 22:35:49;;;;;;;18.60;15.75;;;;;;;10.76;83.18;98246.09;10421751;28;20117;-63
2024/03/10 22:40:51;;;;;;;16.90;15.20;;;;;;;10.84;84.20;98268.34;10390457;28;20052;-63
2024/03/10 22:45:53;;;;;;;17.00;15.25;;;;;;;10.74;86.48;98271.22;10417665;28;21349;-62
2024/03/10 22:50:56;;;;;;;16.98;15.25;;;;;;;10.71;87.02;98269.72;10411379;28;20056;-62
2024/03/10 22:55:57;;;;;;;17.65;15.57;;;;;;;10.79;87.99;98272.38;10416174;28;20149;-63
2024/03/10 23:01:00;;;;;;;19.08;17.25;;;;;;;10.65;90.51;98270.41;10401924;28;20044;-64
2024/03/10 23:06:04;;;;;;;17.90;16.00;;;;;;;10.66;90.55;98277.41;10416419;28;22935;-65
2024/03/10 23:11:05;;;;;;;17.55;15.65;;;;;;;10.56;93.10;98282.91;10412640;28;20068;-62
2024/03/10 23:16:07;;;;;;;17.02;15.32;;;;;;;10.51;93.97;98273.78;10429277;28;20062;-64
2024/03/10 23:21:10;;;;;;;17.52;15.73;;;;;;;10.55;95.69;98265.31;10407567;28;20055;-62
2024/03/10 23:26:12;;;;;;;17.48;15.68;;;;;;;10.41;97.47;98269.50;10430882;28;20057;-63
2024/03/10 23:31:13;;;;;;;17.95;16.15;;;;;;;10.50;97.53;98278.28;10407472;28;20055;-64
2024/03/10 23:36:15;;;;;;;17.02;15.27;;;;;;;10.21;98.31;98255.75;10422188;28;20863;-62